sensor_id;sensor_type;location;lat;lon;timestamp;pressure;altitude;pressure_sealevel;temperature;humidity
33161;BME280;19522;45.656;11.302;2023-04-03T00:00:28;98084.75;;;8.56;77.64
33161;BME280;19522;45.656;11.302;2023-04-03T00:02:54;98076.66;;;8.71;77.66
33161;BME280;19522;45.656;11.302;2023-04-03T00:05:19;98091.22;;;8.70;77.33
33161;BME280;19522;45.656;11.302;2023-04-03T00:07:44;98085.31;;;8.67;77.04
33161;BME280;19522;45.656;11.302;2023-04-03T00:10:10;98085.84;;;8.47;77.49
33161;BME280;19522;45.656;11.302;2023-04-03T00:12:36;98083.16;;;8.24;78.34
33161;BME280;19522;45.656;11.302;2023-04-03T00:15:01;98076.03;;;8.08;79.50
33161;BME280;19522;45.656;11.302;2023-04-03T00:17:27;98071.69;;;7.99;79.20
33161;BME280;19522;45.656;11.302;2023-04-03T00:19:52;98083.03;;;8.02;78.87
33161;BME280;19522;45.656;11.302;2023-04-03T00:22:18;98071.94;;;7.89;79.37
33161;BME280;19522;45.656;11.302;2023-04-03T00:24:43;98088.13;;;7.97;78.71
33161;BME280;19522;45.656;11.302;2023-04-03T00:27:09;98087.44;;;7.95;78.60
33161;BME280;19522;45.656;11.302;2023-04-03T00:29:36;98072.97;;;7.88;78.60
33161;BME280;19522;45.656;11.302;2023-04-03T00:32:01;98085.47;;;7.89;78.03
33161;BME280;19522;45.656;11.302;2023-04-03T00:34:27;98082.78;;;7.89;78.37
33161;BME280;19522;45.656;11.302;2023-04-03T00:36:53;98072.63;;;7.91;78.29
33161;BME280;19522;45.656;11.302;2023-04-03T00:39:18;98074.38;;;7.84;78.11
33161;BME280;19522;45.656;11.302;2023-04-03T00:41:44;98069.97;;;7.83;78.59
33161;BME280;19522;45.656;11.302;2023-04-03T00:47:06;98068.59;;;7.87;77.54
33161;BME280;19522;45.656;11.302;2023-04-03T00:49:32;98073.16;;;8.09;76.88
33161;BME280;19522;45.656;11.302;2023-04-03T00:51:58;98068.97;;;8.07;77.12
33161;BME280;19522;45.656;11.302;2023-04-03T00:54:25;98077.66;;;8.17;76.60
33161;BME280;19522;45.656;11.302;2023-04-03T00:56:53;98056.38;;;8.14;76.32
33161;BME280;19522;45.656;11.302;2023-04-03T00:59:24;98071.59;;;8.15;75.78
33161;BME280;19522;45.656;11.302;2023-04-03T01:01:55;98072.91;;;7.96;76.14
33161;BME280;19522;45.656;11.302;2023-04-03T01:04:40;98067.88;;;7.93;76.68
33161;BME280;19522;45.656;11.302;2023-04-03T01:07:07;98074.13;;;7.93;76.48
33161;BME280;19522;45.656;11.302;2023-04-03T01:09:34;98081.69;;;7.98;76.38
33161;BME280;19522;45.656;11.302;2023-04-03T01:12:24;98081.69;;;7.75;77.08
33161;BME280;19522;45.656;11.302;2023-04-03T01:15:02;98076.28;;;7.75;77.00
33161;BME280;19522;45.656;11.302;2023-04-03T01:17:40;98079.88;;;7.67;77.46
33161;BME280;19522;45.656;11.302;2023-04-03T01:25:40;98086.00;;;7.29;79.90
33161;BME280;19522;45.656;11.302;2023-04-03T01:28:09;98094.75;;;7.31;80.11
33161;BME280;19522;45.656;11.302;2023-04-03T01:30:41;98092.06;;;7.31;79.48
33161;BME280;19522;45.656;11.302;2023-04-03T01:33:08;98097.91;;;7.04;80.04
33161;BME280;19522;45.656;11.302;2023-04-03T01:35:34;98097.44;;;6.92;79.97
33161;BME280;19522;45.656;11.302;2023-04-03T01:37:59;98089.28;;;7.08;79.39
33161;BME280;19522;45.656;11.302;2023-04-03T01:40:25;98087.09;;;7.04;79.30
33161;BME280;19522;45.656;11.302;2023-04-03T01:42:51;98073.91;;;7.17;79.18
33161;BME280;19522;45.656;11.302;2023-04-03T01:45:16;98062.84;;;7.35;77.84
33161;BME280;19522;45.656;11.302;2023-04-03T01:47:42;98082.25;;;7.39;77.63
33161;BME280;19522;45.656;11.302;2023-04-03T01:50:08;98083.66;;;7.26;78.41
33161;BME280;19522;45.656;11.302;2023-04-03T01:52:33;98070.53;;;7.46;77.48
33161;BME280;19522;45.656;11.302;2023-04-03T01:54:59;98070.72;;;7.45;76.41
33161;BME280;19522;45.656;11.302;2023-04-03T01:57:25;98069.97;;;7.59;75.46
33161;BME280;19522;45.656;11.302;2023-04-03T01:59:50;98073.63;;;7.67;75.34
33161;BME280;19522;45.656;11.302;2023-04-03T02:02:16;98067.69;;;7.71;75.09
33161;BME280;19522;45.656;11.302;2023-04-03T02:04:42;98067.63;;;7.79;74.38
33161;BME280;19522;45.656;11.302;2023-04-03T02:07:07;98044.78;;;7.59;74.70
33161;BME280;19522;45.656;11.302;2023-04-03T02:09:33;98061.06;;;7.51;75.86
33161;BME280;19522;45.656;11.302;2023-04-03T02:11:58;98053.75;;;7.28;76.81
33161;BME280;19522;45.656;11.302;2023-04-03T02:14:24;98058.28;;;7.36;77.54
33161;BME280;19522;45.656;11.302;2023-04-03T02:16:51;98030.84;;;7.24;77.39
33161;BME280;19522;45.656;11.302;2023-04-03T02:19:17;98069.69;;;7.46;77.37
33161;BME280;19522;45.656;11.302;2023-04-03T02:21:42;98067.34;;;7.43;77.45
33161;BME280;19522;45.656;11.302;2023-04-03T02:24:08;98058.75;;;7.39;77.84
33161;BME280;19522;45.656;11.302;2023-04-03T02:26:33;98055.84;;;7.49;76.36
33161;BME280;19522;45.656;11.302;2023-04-03T02:28:59;98073.41;;;7.45;76.53
33161;BME280;19522;45.656;11.302;2023-04-03T02:31:25;98052.69;;;7.37;75.69
33161;BME280;19522;45.656;11.302;2023-04-03T02:33:50;98054.59;;;7.28;76.78
33161;BME280;19522;45.656;11.302;2023-04-03T02:36:16;98062.53;;;7.30;76.98
33161;BME280;19522;45.656;11.302;2023-04-03T02:38:42;98060.41;;;7.17;77.18
33161;BME280;19522;45.656;11.302;2023-04-03T02:41:10;98075.25;;;7.21;77.27
33161;BME280;19522;45.656;11.302;2023-04-03T02:43:36;97975.72;;;6.70;77.03
33161;BME280;19522;45.656;11.302;2023-04-03T02:46:03;98057.13;;;7.30;76.62
33161;BME280;19522;45.656;11.302;2023-04-03T02:48:28;98064.34;;;7.38;76.49
33161;BME280;19522;45.656;11.302;2023-04-03T02:50:54;98061.16;;;7.34;76.66
33161;BME280;19522;45.656;11.302;2023-04-03T02:53:20;98063.19;;;7.32;76.30
33161;BME280;19522;45.656;11.302;2023-04-03T02:55:46;98059.56;;;7.16;76.27
33161;BME280;19522;45.656;11.302;2023-04-03T02:58:11;98074.88;;;7.24;75.97
33161;BME280;19522;45.656;11.302;2023-04-03T03:00:37;98060.88;;;7.21;75.50
33161;BME280;19522;45.656;11.302;2023-04-03T03:03:02;98053.94;;;7.26;74.82
33161;BME280;19522;45.656;11.302;2023-04-03T03:05:28;98059.91;;;7.45;74.72
33161;BME280;19522;45.656;11.302;2023-04-03T03:07:54;98019.34;;;7.22;75.31
33161;BME280;19522;45.656;11.302;2023-04-03T03:10:20;98071.25;;;7.40;76.41
33161;BME280;19522;45.656;11.302;2023-04-03T03:12:45;97984.25;;;6.90;76.83
33161;BME280;19522;45.656;11.302;2023-04-03T03:15:11;98062.13;;;7.41;76.55
33161;BME280;19522;45.656;11.302;2023-04-03T03:17:37;98073.56;;;7.52;76.29
33161;BME280;19522;45.656;11.302;2023-04-03T03:20:04;98065.97;;;7.47;76.28
33161;BME280;19522;45.656;11.302;2023-04-03T03:22:30;98076.59;;;7.48;75.67
33161;BME280;19522;45.656;11.302;2023-04-03T03:24:55;98065.13;;;7.46;75.30
33161;BME280;19522;45.656;11.302;2023-04-03T03:27:21;98072.75;;;7.43;75.25
33161;BME280;19522;45.656;11.302;2023-04-03T03:29:46;98075.66;;;7.64;74.72
33161;BME280;19522;45.656;11.302;2023-04-03T03:32:12;98081.97;;;7.57;74.06
33161;BME280;19522;45.656;11.302;2023-04-03T03:34:38;98078.97;;;7.20;75.61
33161;BME280;19522;45.656;11.302;2023-04-03T03:37:03;98079.22;;;7.33;76.26
33161;BME280;19522;45.656;11.302;2023-04-03T03:39:29;98068.53;;;7.40;75.42
33161;BME280;19522;45.656;11.302;2023-04-03T03:41:54;98062.84;;;7.35;75.55
33161;BME280;19522;45.656;11.302;2023-04-03T03:44:20;98077.53;;;7.32;76.46
33161;BME280;19522;45.656;11.302;2023-04-03T03:46:46;98070.78;;;7.37;75.91
33161;BME280;19522;45.656;11.302;2023-04-03T03:49:12;98076.84;;;7.39;75.68
33161;BME280;19522;45.656;11.302;2023-04-03T03:51:38;98079.06;;;7.35;75.43
33161;BME280;19522;45.656;11.302;2023-04-03T03:54:04;98069.09;;;7.36;75.62
33161;BME280;19522;45.656;11.302;2023-04-03T03:56:30;98068.38;;;7.42;75.81
33161;BME280;19522;45.656;11.302;2023-04-03T03:58:56;98059.91;;;7.45;75.05
33161;BME280;19522;45.656;11.302;2023-04-03T04:01:23;98076.44;;;7.50;75.25
33161;BME280;19522;45.656;11.302;2023-04-03T04:03:48;98076.34;;;7.67;74.93
33161;BME280;19522;45.656;11.302;2023-04-03T04:06:14;98076.16;;;7.68;74.98
33161;BME280;19522;45.656;11.302;2023-04-03T04:08:40;98086.66;;;7.63;75.36
33161;BME280;19522;45.656;11.302;2023-04-03T04:11:06;98077.56;;;7.56;75.49
33161;BME280;19522;45.656;11.302;2023-04-03T04:13:32;98038.22;;;7.30;74.85
33161;BME280;19522;45.656;11.302;2023-04-03T04:15:57;98094.16;;;7.53;75.78
33161;BME280;19522;45.656;11.302;2023-04-03T04:18:22;98081.25;;;7.31;76.14
33161;BME280;19522;45.656;11.302;2023-04-03T04:20:49;98084.31;;;7.28;76.12
33161;BME280;19522;45.656;11.302;2023-04-03T04:23:16;98083.94;;;7.31;76.72
33161;BME280;19522;45.656;11.302;2023-04-03T04:25:44;98086.94;;;7.45;75.80
33161;BME280;19522;45.656;11.302;2023-04-03T04:28:10;98079.66;;;7.14;76.74
33161;BME280;19522;45.656;11.302;2023-04-03T04:30:35;98099.31;;;7.31;76.60
33161;BME280;19522;45.656;11.302;2023-04-03T04:33:01;98098.69;;;7.21;76.93
33161;BME280;19522;45.656;11.302;2023-04-03T04:35:26;98098.53;;;7.14;77.33
33161;BME280;19522;45.656;11.302;2023-04-03T04:37:52;98089.47;;;7.07;77.74
33161;BME280;19522;45.656;11.302;2023-04-03T04:40:18;98102.25;;;7.13;78.34
33161;BME280;19522;45.656;11.302;2023-04-03T04:42:43;98095.81;;;7.22;77.95
33161;BME280;19522;45.656;11.302;2023-04-03T04:45:09;98050.72;;;6.91;78.00
33161;BME280;19522;45.656;11.302;2023-04-03T04:47:34;98093.34;;;7.12;78.05
33161;BME280;19522;45.656;11.302;2023-04-03T04:50:00;98102.63;;;7.10;78.37
33161;BME280;19522;45.656;11.302;2023-04-03T04:52:26;98104.44;;;7.17;77.93
33161;BME280;19522;45.656;11.302;2023-04-03T04:54:51;98037.16;;;6.68;78.30
33161;BME280;19522;45.656;11.302;2023-04-03T04:57:17;98101.75;;;7.17;78.45
33161;BME280;19522;45.656;11.302;2023-04-03T04:59:42;98097.03;;;7.11;78.26
33161;BME280;19522;45.656;11.302;2023-04-03T05:02:08;98099.31;;;7.31;77.52
33161;BME280;19522;45.656;11.302;2023-04-03T05:04:33;98099.78;;;7.03;78.75
33161;BME280;19522;45.656;11.302;2023-04-03T05:06:59;98107.13;;;6.69;80.44
33161;BME280;19522;45.656;11.302;2023-04-03T05:09:25;98106.63;;;6.49;80.47
33161;BME280;19522;45.656;11.302;2023-04-03T05:11:50;98101.25;;;6.41;81.36
33161;BME280;19522;45.656;11.302;2023-04-03T05:14:16;98109.34;;;6.66;80.54
33161;BME280;19522;45.656;11.302;2023-04-03T05:16:42;98102.25;;;6.65;80.41
33161;BME280;19522;45.656;11.302;2023-04-03T05:19:07;98107.94;;;6.86;80.93
33161;BME280;19522;45.656;11.302;2023-04-03T05:21:33;98107.84;;;7.11;79.90
33161;BME280;19522;45.656;11.302;2023-04-03T05:23:59;98107.22;;;6.93;80.51
33161;BME280;19522;45.656;11.302;2023-04-03T05:26:30;98079.56;;;6.91;80.25
33161;BME280;19522;45.656;11.302;2023-04-03T05:28:56;98105.47;;;7.16;79.54
33161;BME280;19522;45.656;11.302;2023-04-03T05:31:22;98116.28;;;7.08;79.93
33161;BME280;19522;45.656;11.302;2023-04-03T05:33:48;98117.34;;;6.91;81.13
33161;BME280;19522;45.656;11.302;2023-04-03T05:36:14;98114.78;;;7.06;80.41
33161;BME280;19522;45.656;11.302;2023-04-03T05:38:39;98112.25;;;7.04;80.56
33161;BME280;19522;45.656;11.302;2023-04-03T05:41:05;98107.63;;;6.73;81.36
33161;BME280;19522;45.656;11.302;2023-04-03T05:43:31;98118.91;;;6.77;81.93
33161;BME280;19522;45.656;11.302;2023-04-03T05:45:56;98117.72;;;6.79;81.77
33161;BME280;19522;45.656;11.302;2023-04-03T05:48:22;98119.06;;;6.83;81.65
33161;BME280;19522;45.656;11.302;2023-04-03T05:50:48;98060.63;;;6.51;81.41
33161;BME280;19522;45.656;11.302;2023-04-03T05:53:28;98122.75;;;6.91;81.34
33161;BME280;19522;45.656;11.302;2023-04-03T05:55:54;98122.84;;;7.14;80.45
33161;BME280;19522;45.656;11.302;2023-04-03T05:58:20;98102.59;;;7.18;79.90
33161;BME280;19522;45.656;11.302;2023-04-03T06:00:46;98118.97;;;7.16;80.90
33161;BME280;19522;45.656;11.302;2023-04-03T06:03:11;98106.19;;;7.02;80.99
33161;BME280;19522;45.656;11.302;2023-04-03T06:05:37;98116.97;;;7.10;80.82
33161;BME280;19522;45.656;11.302;2023-04-03T06:08:02;98121.16;;;7.13;81.37
33161;BME280;19522;45.656;11.302;2023-04-03T06:10:28;98119.06;;;7.31;80.58
33161;BME280;19522;45.656;11.302;2023-04-03T06:12:54;98114.47;;;7.40;80.50
33161;BME280;19522;45.656;11.302;2023-04-03T06:15:19;98112.34;;;7.27;81.30
33161;BME280;19522;45.656;11.302;2023-04-03T06:17:45;98091.88;;;6.93;82.41
33161;BME280;19522;45.656;11.302;2023-04-03T06:20:12;98125.75;;;7.12;82.83
33161;BME280;19522;45.656;11.302;2023-04-03T06:22:38;98118.28;;;7.23;83.04
33161;BME280;19522;45.656;11.302;2023-04-03T06:25:04;98101.53;;;7.27;82.91
33161;BME280;19522;45.656;11.302;2023-04-03T06:27:30;98095.09;;;7.37;82.58
33161;BME280;19522;45.656;11.302;2023-04-03T06:29:55;98113.69;;;7.63;82.40
33161;BME280;19522;45.656;11.302;2023-04-03T06:32:21;98096.53;;;7.79;82.42
33161;BME280;19522;45.656;11.302;2023-04-03T06:34:47;98100.44;;;8.00;81.05
33161;BME280;19522;45.656;11.302;2023-04-03T06:37:17;98119.13;;;8.09;82.44
33161;BME280;19522;45.656;11.302;2023-04-03T06:39:43;98112.06;;;8.47;81.39
33161;BME280;19522;45.656;11.302;2023-04-03T06:42:10;98112.06;;;8.85;79.60
33161;BME280;19522;45.656;11.302;2023-04-03T06:44:36;98079.28;;;8.80;79.00
33161;BME280;19522;45.656;11.302;2023-04-03T06:47:02;98105.22;;;9.19;76.48
33161;BME280;19522;45.656;11.302;2023-04-03T06:49:28;98100.09;;;9.39;75.59
33161;BME280;19522;45.656;11.302;2023-04-03T06:51:54;98108.47;;;9.44;76.58
33161;BME280;19522;45.656;11.302;2023-04-03T06:54:20;98102.19;;;9.59;75.50
33161;BME280;19522;45.656;11.302;2023-04-03T06:56:46;98059.16;;;9.34;76.16
33161;BME280;19522;45.656;11.302;2023-04-03T06:59:12;98091.69;;;9.71;75.30
33161;BME280;19522;45.656;11.302;2023-04-03T07:01:39;98104.03;;;9.95;74.89
33161;BME280;19522;45.656;11.302;2023-04-03T07:04:06;98110.44;;;10.09;73.69
33161;BME280;19522;45.656;11.302;2023-04-03T07:06:32;98111.31;;;10.09;74.62
33161;BME280;19522;45.656;11.302;2023-04-03T07:08:59;98105.97;;;10.23;74.38
33161;BME280;19522;45.656;11.302;2023-04-03T07:11:25;98113.81;;;10.33;73.99
33161;BME280;19522;45.656;11.302;2023-04-03T07:13:51;98110.13;;;10.40;73.37
33161;BME280;19522;45.656;11.302;2023-04-03T07:16:18;98122.34;;;10.51;73.78
33161;BME280;19522;45.656;11.302;2023-04-03T07:18:44;98120.59;;;10.43;75.14
33161;BME280;19522;45.656;11.302;2023-04-03T07:21:10;98108.50;;;10.46;73.68
33161;BME280;19522;45.656;11.302;2023-04-03T07:23:36;98110.97;;;10.63;72.64
33161;BME280;19522;45.656;11.302;2023-04-03T07:26:01;98118.69;;;10.66;73.67
33161;BME280;19522;45.656;11.302;2023-04-03T07:28:27;98122.41;;;10.58;73.92
33161;BME280;19522;45.656;11.302;2023-04-03T07:30:59;98127.00;;;10.57;74.67
33161;BME280;19522;45.656;11.302;2023-04-03T07:33:26;98120.91;;;10.55;73.86
33161;BME280;19522;45.656;11.302;2023-04-03T07:35:51;98129.19;;;10.47;75.09
33161;BME280;19522;45.656;11.302;2023-04-03T07:38:17;98132.72;;;10.69;74.84
33161;BME280;19522;45.656;11.302;2023-04-03T07:40:48;98138.06;;;10.84;74.92
33161;BME280;19522;45.656;11.302;2023-04-03T07:43:14;98135.34;;;10.84;73.72
33161;BME280;19522;45.656;11.302;2023-04-03T07:45:40;98140.00;;;10.97;71.08
33161;BME280;19522;45.656;11.302;2023-04-03T07:48:06;98134.63;;;11.04;71.39
33161;BME280;19522;45.656;11.302;2023-04-03T07:50:32;98108.88;;;10.65;70.92
33161;BME280;19522;45.656;11.302;2023-04-03T07:52:58;98137.50;;;10.96;71.83
33161;BME280;19522;45.656;11.302;2023-04-03T07:55:24;98112.56;;;10.85;70.83
33161;BME280;19522;45.656;11.302;2023-04-03T07:57:50;98132.13;;;11.02;69.63
33161;BME280;19522;45.656;11.302;2023-04-03T08:00:16;98106.31;;;11.20;69.15
33161;BME280;19522;45.656;11.302;2023-04-03T08:02:43;98105.78;;;11.45;67.89
33161;BME280;19522;45.656;11.302;2023-04-03T08:05:10;98093.66;;;12.03;65.82
33161;BME280;19522;45.656;11.302;2023-04-03T08:07:37;98087.72;;;11.79;66.43
33161;BME280;19522;45.656;11.302;2023-04-03T08:10:03;98115.84;;;11.99;65.47
33161;BME280;19522;45.656;11.302;2023-04-03T08:12:28;98099.72;;;11.43;66.17
33161;BME280;19522;45.656;11.302;2023-04-03T08:14:55;98130.00;;;10.98;68.36
33161;BME280;19522;45.656;11.302;2023-04-03T08:17:21;98132.88;;;10.89;68.69
33161;BME280;19522;45.656;11.302;2023-04-03T08:19:47;98123.44;;;10.85;68.69
33161;BME280;19522;45.656;11.302;2023-04-03T08:22:12;98121.00;;;10.97;68.93
33161;BME280;19522;45.656;11.302;2023-04-03T08:24:38;98130.16;;;11.25;68.17
33161;BME280;19522;45.656;11.302;2023-04-03T08:27:03;98116.50;;;11.53;67.59
33161;BME280;19522;45.656;11.302;2023-04-03T08:29:29;98120.66;;;11.49;66.79
33161;BME280;19522;45.656;11.302;2023-04-03T08:31:55;98092.63;;;11.42;67.43
33161;BME280;19522;45.656;11.302;2023-04-03T08:34:20;98125.19;;;11.83;67.13
33161;BME280;19522;45.656;11.302;2023-04-03T08:36:46;98120.16;;;11.80;65.62
33161;BME280;19522;45.656;11.302;2023-04-03T08:39:12;98104.69;;;11.94;65.84
33161;BME280;19522;45.656;11.302;2023-04-03T08:41:44;98111.03;;;12.08;66.24
33161;BME280;19522;45.656;11.302;2023-04-03T08:44:36;98110.19;;;12.01;65.46
33161;BME280;19522;45.656;11.302;2023-04-03T08:50:17;98114.59;;;12.02;65.47
33161;BME280;19522;45.656;11.302;2023-04-03T08:52:47;98125.59;;;11.80;65.29
33161;BME280;19522;45.656;11.302;2023-04-03T08:55:28;98115.78;;;11.86;65.01
33161;BME280;19522;45.656;11.302;2023-04-03T08:58:09;98119.75;;;11.83;65.93
33161;BME280;19522;45.656;11.302;2023-04-03T09:03:13;98114.59;;;12.02;65.37
33161;BME280;19522;45.656;11.302;2023-04-03T09:08:27;98118.47;;;11.24;68.16
33161;BME280;19522;45.656;11.302;2023-04-03T09:11:25;98119.41;;;11.51;68.47
33161;BME280;19522;45.656;11.302;2023-04-03T09:22:23;98129.69;;;11.14;70.17
33161;BME280;19522;45.656;11.302;2023-04-03T09:24:57;98117.34;;;10.83;70.73
33161;BME280;19522;45.656;11.302;2023-04-03T09:27:24;98122.19;;;10.88;69.90
33161;BME280;19522;45.656;11.302;2023-04-03T09:29:53;98121.97;;;10.83;69.86
33161;BME280;19522;45.656;11.302;2023-04-03T09:32:28;98108.13;;;10.49;70.37
33161;BME280;19522;45.656;11.302;2023-04-03T09:34:57;98099.09;;;10.42;70.87
33161;BME280;19522;45.656;11.302;2023-04-03T09:37:40;98131.63;;;10.64;70.33
33161;BME280;19522;45.656;11.302;2023-04-03T09:40:31;98124.38;;;10.71;69.84
33161;BME280;19522;45.656;11.302;2023-04-03T09:43:22;98127.91;;;10.21;69.72
33161;BME280;19522;45.656;11.302;2023-04-03T09:45:48;98128.22;;;10.33;69.01
33161;BME280;19522;45.656;11.302;2023-04-03T09:53:41;98123.09;;;10.95;67.63
33161;BME280;19522;45.656;11.302;2023-04-03T09:58:44;98112.41;;;10.94;66.56
33161;BME280;19522;45.656;11.302;2023-04-03T10:01:28;98114.72;;;10.62;67.22
33161;BME280;19522;45.656;11.302;2023-04-03T10:06:55;98117.34;;;10.83;66.30
33161;BME280;19522;45.656;11.302;2023-04-03T10:09:23;98113.56;;;10.78;67.08
33161;BME280;19522;45.656;11.302;2023-04-03T10:14:31;98116.00;;;10.22;67.86
33161;BME280;19522;45.656;11.302;2023-04-03T10:19:56;98111.78;;;10.20;68.30
33161;BME280;19522;45.656;11.302;2023-04-03T10:22:37;98113.16;;;10.31;67.88
33161;BME280;19522;45.656;11.302;2023-04-03T10:25:20;98108.28;;;10.41;68.22
33161;BME280;19522;45.656;11.302;2023-04-03T10:38:47;98075.94;;;10.74;64.60
33161;BME280;19522;45.656;11.302;2023-04-03T10:41:24;98094.03;;;10.60;64.40
33161;BME280;19522;45.656;11.302;2023-04-03T10:46:43;98098.13;;;10.78;63.66
33161;BME280;19522;45.656;11.302;2023-04-03T10:51:50;98095.16;;;10.44;64.68
33161;BME280;19522;45.656;11.302;2023-04-03T10:54:26;98097.41;;;10.41;64.99
33161;BME280;19522;45.656;11.302;2023-04-03T10:56:57;98090.66;;;10.37;64.40
33161;BME280;19522;45.656;11.302;2023-04-03T10:59:33;98090.88;;;10.64;64.74
33161;BME280;19522;45.656;11.302;2023-04-03T11:02:07;98085.94;;;10.74;63.59
33161;BME280;19522;45.656;11.302;2023-04-03T11:04:40;98094.16;;;10.52;63.91
33161;BME280;19522;45.656;11.302;2023-04-03T11:09:40;98083.97;;;10.61;63.53
33161;BME280;19522;45.656;11.302;2023-04-03T11:12:15;98085.66;;;10.62;63.00
33161;BME280;19522;45.656;11.302;2023-04-03T11:14:42;98080.69;;;10.66;63.06
33161;BME280;19522;45.656;11.302;2023-04-03T11:22:30;98056.53;;;10.49;62.98
33161;BME280;19522;45.656;11.302;2023-04-03T11:27:40;98067.03;;;10.87;62.95
33161;BME280;19522;45.656;11.302;2023-04-03T11:30:58;98058.88;;;10.87;61.78
33161;BME280;19522;45.656;11.302;2023-04-03T11:35:36;98053.06;;;10.90;61.42
33161;BME280;19522;45.656;11.302;2023-04-03T11:38:04;98033.00;;;10.91;61.14
33161;BME280;19522;45.656;11.302;2023-04-03T11:40:35;98029.00;;;10.52;61.61
33161;BME280;19522;45.656;11.302;2023-04-03T11:43:24;98051.84;;;10.65;62.13
33161;BME280;19522;45.656;11.302;2023-04-03T11:46:04;98047.84;;;10.60;62.27
33161;BME280;19522;45.656;11.302;2023-04-03T11:53:43;98038.84;;;11.37;59.68
33161;BME280;19522;45.656;11.302;2023-04-03T12:01:56;98041.13;;;11.33;61.46
33161;BME280;19522;45.656;11.302;2023-04-03T12:04:26;98010.66;;;11.58;61.08
33161;BME280;19522;45.656;11.302;2023-04-03T12:07:12;98017.00;;;11.85;60.40
33161;BME280;19522;45.656;11.302;2023-04-03T12:12:55;98014.06;;;11.80;60.08
33161;BME280;19522;45.656;11.302;2023-04-03T12:15:50;98017.41;;;11.82;59.92
33161;BME280;19522;45.656;11.302;2023-04-03T12:21:06;98010.56;;;12.07;59.93
33161;BME280;19522;45.656;11.302;2023-04-03T12:24:01;98012.47;;;12.06;60.64
33161;BME280;19522;45.656;11.302;2023-04-03T12:29:29;97996.97;;;12.20;58.23
33161;BME280;19522;45.656;11.302;2023-04-03T12:41:18;97996.53;;;12.37;58.58
33161;BME280;19522;45.656;11.302;2023-04-03T12:46:45;97979.38;;;12.29;57.97
33161;BME280;19522;45.656;11.302;2023-04-03T12:49:39;97981.88;;;11.97;57.62
33161;BME280;19522;45.656;11.302;2023-04-03T12:52:32;97970.03;;;12.77;59.00
33161;BME280;19522;45.656;11.302;2023-04-03T12:55:01;97933.91;;;13.41;54.12
33161;BME280;19522;45.656;11.302;2023-04-03T12:57:31;97962.66;;;14.52;53.19
33161;BME280;19522;45.656;11.302;2023-04-03T12:59:59;97915.53;;;14.75;51.89
33161;BME280;19522;45.656;11.302;2023-04-03T13:04:55;97934.97;;;14.85;50.27
33161;BME280;19522;45.656;11.302;2023-04-03T13:09:58;97943.59;;;14.63;50.90
33161;BME280;19522;45.656;11.302;2023-04-03T13:12:25;97957.25;;;14.63;50.87
33161;BME280;19522;45.656;11.302;2023-04-03T13:14:53;97953.34;;;14.78;49.84
33161;BME280;19522;45.656;11.302;2023-04-03T13:17:20;97933.28;;;14.65;49.25
33161;BME280;19522;45.656;11.302;2023-04-03T13:19:47;97935.84;;;14.42;49.95
33161;BME280;19522;45.656;11.302;2023-04-03T13:24:59;97952.19;;;13.34;52.38
33161;BME280;19522;45.656;11.302;2023-04-03T13:27:30;97932.56;;;12.66;53.87
33161;BME280;19522;45.656;11.302;2023-04-03T13:29:58;97956.75;;;12.09;55.06
33161;BME280;19522;45.656;11.302;2023-04-03T13:32:26;97952.13;;;12.09;56.69
33161;BME280;19522;45.656;11.302;2023-04-03T13:34:52;97944.84;;;12.17;55.63
33161;BME280;19522;45.656;11.302;2023-04-03T13:37:30;97898.34;;;11.84;55.51
33161;BME280;19522;45.656;11.302;2023-04-03T13:42:31;97949.19;;;11.91;56.52
33161;BME280;19522;45.656;11.302;2023-04-03T13:45:17;97949.00;;;11.99;55.90
33161;BME280;19522;45.656;11.302;2023-04-03T13:47:46;97928.69;;;12.08;55.00
33161;BME280;19522;45.656;11.302;2023-04-03T13:55:26;97919.78;;;12.67;54.33
33161;BME280;19522;45.656;11.302;2023-04-03T13:58:03;97947.84;;;12.74;55.03
33161;BME280;19522;45.656;11.302;2023-04-03T14:03:31;97931.22;;;12.17;53.85
33161;BME280;19522;45.656;11.302;2023-04-03T14:05:58;97930.19;;;12.04;54.48
33161;BME280;19522;45.656;11.302;2023-04-03T14:08:25;97917.81;;;12.08;53.77
33161;BME280;19522;45.656;11.302;2023-04-03T14:10:51;97934.75;;;12.10;53.16
33161;BME280;19522;45.656;11.302;2023-04-03T14:13:18;97938.34;;;12.11;54.69
33161;BME280;19522;45.656;11.302;2023-04-03T14:15:46;97924.50;;;11.92;54.67
33161;BME280;19522;45.656;11.302;2023-04-03T14:18:15;97907.53;;;11.83;54.50
33161;BME280;19522;45.656;11.302;2023-04-03T14:20:42;97928.91;;;12.07;54.46
33161;BME280;19522;45.656;11.302;2023-04-03T14:23:08;97934.56;;;12.05;54.25
33161;BME280;19522;45.656;11.302;2023-04-03T14:25:34;97924.91;;;12.23;53.44
33161;BME280;19522;45.656;11.302;2023-04-03T14:28:01;97908.38;;;12.18;54.58
33161;BME280;19522;45.656;11.302;2023-04-03T14:30:32;97923.25;;;12.22;54.36
33161;BME280;19522;45.656;11.302;2023-04-03T14:32:59;97918.22;;;12.12;53.73
33161;BME280;19522;45.656;11.302;2023-04-03T14:35:26;97914.44;;;12.33;53.53
33161;BME280;19522;45.656;11.302;2023-04-03T14:37:52;97920.75;;;12.13;53.06
33161;BME280;19522;45.656;11.302;2023-04-03T14:40:24;97914.22;;;12.35;52.23
33161;BME280;19522;45.656;11.302;2023-04-03T14:42:50;97913.81;;;12.18;51.81
33161;BME280;19522;45.656;11.302;2023-04-03T14:45:17;97914.84;;;11.96;52.16
33161;BME280;19522;45.656;11.302;2023-04-03T14:47:52;97913.19;;;11.95;52.29
33161;BME280;19522;45.656;11.302;2023-04-03T14:50:22;97914.25;;;12.14;52.36
33161;BME280;19522;45.656;11.302;2023-04-03T14:52:51;97904.19;;;12.08;52.86
33161;BME280;19522;45.656;11.302;2023-04-03T14:55:19;97852.53;;;11.54;52.71
33161;BME280;19522;45.656;11.302;2023-04-03T14:57:45;97917.41;;;12.05;51.88
33161;BME280;19522;45.656;11.302;2023-04-03T15:00:15;97899.78;;;11.87;52.30
33161;BME280;19522;45.656;11.302;2023-04-03T15:02:40;97845.41;;;11.60;51.94